Time,TemperatureF,DewpointF,PressureIn,WindDirection,WindDirectionDegrees,WindSpeedMPH,WindSpeedGustMPH,Humidity,HourlyPrecipIn,Conditions,Clouds,dailyrainin,SolarRadiationWatts/m^2,SoftwareType,DateUTC
2014-09-19 00:04:00,44.0,44.0,-100.00,North,-999,0.0,0.0,99,0.00,,,0.00,0.000000,,2014-09-19 04:04:00,
2014-09-19 00:44:00,44.0,44.0,-100.00,ENE,57,1.0,3.0,99,0.00,,,0.00,0.000000,,2014-09-19 04:44:00,
2014-09-19 00:53:00,44.0,44.0,-100.00,ENE,57,1.0,3.0,99,0.00,,,0.00,0.000000,,2014-09-19 04:53:00,
2014-09-19 01:03:00,44.0,44.0,-100.00,ENE,57,1.0,3.0,99,0.00,,,0.00,0.000000,,2014-09-19 05:03:00,
2014-09-19 01:43:00,44.0,44.0,-100.00,ESE,106,2.0,2.0,100,0.00,,,0.00,0.000000,,2014-09-19 05:43:00,
2014-09-19 01:53:00,44.0,44.0,-100.00,ESE,106,2.0,2.0,100,0.00,,,0.00,0.000000,,2014-09-19 05:53:00,
2014-09-19 02:02:00,44.0,44.0,-100.00,ESE,106,2.0,2.0,100,0.00,,,0.00,0.000000,,2014-09-19 06:02:00,
2014-09-19 02:43:00,43.0,43.0,-100.00,East,96,3.0,3.0,100,0.00,,,0.00,0.000000,,2014-09-19 06:43:00,
2014-09-19 02:53:00,43.0,43.0,-100.00,East,96,3.0,3.0,100,0.00,,,0.00,0.000000,,2014-09-19 06:53:00,
2014-09-19 03:02:00,43.0,43.0,-100.00,East,96,3.0,3.0,100,0.00,,,0.00,0.000000,,2014-09-19 07:02:00,
2014-09-19 03:43:00,44.0,44.0,-100.00,East,89,3.0,6.0,100,0.00,,,0.00,0.000000,,2014-09-19 07:43:00,
2014-09-19 03:53:00,44.0,44.0,-100.00,East,89,3.0,6.0,100,0.00,,,0.00,0.000000,,2014-09-19 07:53:00,
2014-09-19 04:02:00,44.0,44.0,-100.00,East,89,3.0,6.0,100,0.00,,,0.00,0.000000,,2014-09-19 08:02:00,
2014-09-19 04:42:00,44.0,44.0,-100.00,East,91,2.0,2.0,100,0.00,,,0.00,0.000000,,2014-09-19 08:42:00,
2014-09-19 04:52:00,44.0,44.0,-100.00,East,91,2.0,2.0,100,0.00,,,0.00,0.000000,,2014-09-19 08:52:00,
2014-09-19 05:02:00,44.0,44.0,-100.00,East,91,2.0,2.0,100,0.00,,,0.00,0.000000,,2014-09-19 09:02:00,
2014-09-19 05:44:00,42.0,42.0,-100.00,ENE,72,2.0,2.0,100,0.00,,,0.00,0.000000,,2014-09-19 09:44:00,
2014-09-19 05:54:00,42.0,42.0,-100.00,ENE,72,2.0,2.0,100,0.00,,,0.00,0.000000,,2014-09-19 09:54:00,
2014-09-19 06:04:00,42.0,42.0,-100.00,ENE,72,2.0,2.0,100,0.00,,,0.00,0.000000,,2014-09-19 10:04:00,
2014-09-19 06:43:00,39.0,39.0,-100.00,North,-999,0.0,2.0,99,0.00,,,0.00,0.000000,,2014-09-19 10:43:00,
2014-09-19 06:54:00,39.0,39.0,-100.00,North,-999,0.0,2.0,99,0.00,,,0.00,0.000000,,2014-09-19 10:54:00,
2014-09-19 07:03:00,39.0,39.0,-100.00,North,-999,0.0,2.0,99,0.00,,,0.00,0.000000,,2014-09-19 11:03:00,
2014-09-19 07:43:00,40.0,40.0,-100.00,ENE,78,2.0,3.0,100,0.00,,,0.00,2.000000,,2014-09-19 11:43:00,
2014-09-19 07:52:00,40.0,40.0,-100.00,ENE,78,2.0,3.0,100,0.00,,,0.00,2.000000,,2014-09-19 11:52:00,
2014-09-19 08:02:00,40.0,40.0,-100.00,ENE,78,2.0,3.0,100,0.00,,,0.00,2.000000,,2014-09-19 12:02:00,
2014-09-19 08:42:00,41.0,41.0,-100.00,ENE,75,2.0,4.0,99,0.00,,,0.00,38.000000,,2014-09-19 12:42:00,
2014-09-19 08:52:00,41.0,41.0,-100.00,ENE,75,2.0,4.0,99,0.00,,,0.00,38.000000,,2014-09-19 12:52:00,
2014-09-19 09:02:00,41.0,41.0,-100.00,ENE,75,2.0,4.0,99,0.00,,,0.00,38.000000,,2014-09-19 13:02:00,
2014-09-19 09:42:00,43.0,43.0,-100.00,East,94,4.0,6.0,99,0.00,,,0.00,137.000000,,2014-09-19 13:42:00,
2014-09-19 09:53:00,43.0,43.0,-100.00,East,94,4.0,6.0,99,0.00,,,0.00,137.000000,,2014-09-19 13:53:00,
2014-09-19 10:03:00,43.0,43.0,-100.00,East,94,4.0,6.0,99,0.00,,,0.00,137.000000,,2014-09-19 14:03:00,
2014-09-19 10:42:00,45.0,44.0,-100.00,ENE,74,5.0,7.0,98,0.00,,,0.00,162.000000,,2014-09-19 14:42:00,
2014-09-19 10:52:00,45.0,44.0,-100.00,ENE,74,5.0,7.0,98,0.00,,,0.00,162.000000,,2014-09-19 14:52:00,
2014-09-19 11:02:00,45.0,44.0,-100.00,ENE,74,5.0,7.0,98,0.00,,,0.00,162.000000,,2014-09-19 15:02:00,
2014-09-19 12:54:00,58.0,47.0,-100.00,ENE,72,4.0,7.0,68,0.00,,,0.00,666.000000,,2014-09-19 16:54:00,
2014-09-19 13:04:00,58.0,47.0,-100.00,ENE,72,4.0,7.0,68,0.00,,,0.00,666.000000,,2014-09-19 17:04:00,
2014-09-19 13:44:00,63.0,46.0,-100.00,South,171,3.0,4.0,54,0.00,,,0.00,799.000000,,2014-09-19 17:44:00,
2014-09-19 13:53:00,63.0,46.0,-100.00,South,171,3.0,4.0,54,0.00,,,0.00,799.000000,,2014-09-19 17:53:00,
2014-09-19 14:03:00,63.0,46.0,-100.00,South,171,3.0,4.0,54,0.00,,,0.00,799.000000,,2014-09-19 18:03:00,
2014-09-19 14:42:00,67.0,47.0,-100.00,SSE,150,4.0,8.0,49,0.00,,,0.00,811.000000,,2014-09-19 18:42:00,
2014-09-19 14:53:00,67.0,47.0,-100.00,SSE,150,4.0,8.0,49,0.00,,,0.00,811.000000,,2014-09-19 18:53:00,
2014-09-19 15:02:00,67.0,47.0,-100.00,SSE,150,4.0,8.0,49,0.00,,,0.00,811.000000,,2014-09-19 19:02:00,
2014-09-19 15:42:00,67.0,49.0,-100.00,SE,125,5.0,7.0,52,0.00,,,0.00,642.000000,,2014-09-19 19:42:00,
2014-09-19 15:53:00,67.0,49.0,-100.00,SE,125,5.0,7.0,52,0.00,,,0.00,642.000000,,2014-09-19 19:53:00,
2014-09-19 16:02:00,67.0,49.0,-100.00,SE,125,5.0,7.0,52,0.00,,,0.00,642.000000,,2014-09-19 20:02:00,
2014-09-19 16:42:00,68.0,48.0,-100.00,SSE,162,6.0,7.0,48,0.00,,,0.00,532.000000,,2014-09-19 20:42:00,
2014-09-19 16:53:00,68.0,48.0,-100.00,SSE,162,6.0,7.0,48,0.00,,,0.00,532.000000,,2014-09-19 20:53:00,
2014-09-19 17:02:00,68.0,48.0,-100.00,SSE,162,6.0,7.0,48,0.00,,,0.00,532.000000,,2014-09-19 21:02:00,
2014-09-19 17:44:00,67.0,49.0,-100.00,SE,146,5.0,8.0,53,0.00,,,0.00,435.000000,,2014-09-19 21:44:00,
2014-09-19 17:55:00,67.0,49.0,-100.00,SE,146,5.0,8.0,53,0.00,,,0.00,435.000000,,2014-09-19 21:55:00,
2014-09-19 18:04:00,67.0,49.0,-100.00,SE,146,5.0,8.0,53,0.00,,,0.00,435.000000,,2014-09-19 22:04:00,
2014-09-19 18:42:00,65.0,51.0,-100.00,SE,144,4.0,6.0,60,0.00,,,0.00,220.000000,,2014-09-19 22:42:00,
2014-09-19 18:53:00,65.0,51.0,-100.00,SE,144,4.0,6.0,60,0.00,,,0.00,220.000000,,2014-09-19 22:53:00,
2014-09-19 19:03:00,65.0,51.0,-100.00,SE,144,4.0,6.0,60,0.00,,,0.00,220.000000,,2014-09-19 23:03:00,
2014-09-19 19:42:00,61.0,52.0,-100.00,SE,128,3.0,5.0,73,0.00,,,0.00,64.000000,,2014-09-19 23:42:00,
2014-09-19 19:53:00,61.0,52.0,-100.00,SE,128,3.0,5.0,73,0.00,,,0.00,64.000000,,2014-09-19 23:53:00,
2014-09-19 20:03:00,61.0,52.0,-100.00,SE,128,3.0,5.0,73,0.00,,,0.00,64.000000,,2014-09-20 00:03:00,
2014-09-19 20:43:00,58.0,52.0,-100.00,ESE,122,4.0,8.0,79,0.00,,,0.00,3.000000,,2014-09-20 00:43:00,
2014-09-19 20:52:00,58.0,52.0,-100.00,ESE,122,4.0,8.0,79,0.00,,,0.00,3.000000,,2014-09-20 00:52:00,
2014-09-19 21:02:00,58.0,52.0,-100.00,ESE,122,4.0,8.0,79,0.00,,,0.00,3.000000,,2014-09-20 01:02:00,
2014-09-19 21:43:00,56.0,51.0,-100.00,SE,136,3.0,6.0,83,0.00,,,0.00,0.000000,,2014-09-20 01:43:00,
2014-09-19 21:53:00,56.0,51.0,-100.00,SE,136,3.0,6.0,83,0.00,,,0.00,0.000000,,2014-09-20 01:53:00,
2014-09-19 22:02:00,56.0,51.0,-100.00,SE,136,3.0,6.0,83,0.00,,,0.00,0.000000,,2014-09-20 02:02:00,
2014-09-19 22:43:00,56.0,51.0,-100.00,SE,142,4.0,6.0,83,0.00,,,0.00,0.000000,,2014-09-20 02:43:00,
2014-09-19 22:53:00,56.0,51.0,-100.00,SE,142,4.0,6.0,83,0.00,,,0.00,0.000000,,2014-09-20 02:53:00,
2014-09-19 23:02:00,56.0,51.0,-100.00,SE,142,4.0,6.0,83,0.00,,,0.00,0.000000,,2014-09-20 03:02:00,